createdAt,value
2023-04-29T00:00:32.936Z,37.77
2023-04-29T00:03:02.521Z,38.60
2023-04-29T00:05:31.688Z,42.57
2023-04-29T00:08:00.190Z,33.77
2023-04-29T00:10:28.689Z,32.67
2023-04-29T00:12:57.113Z,37.73
2023-04-29T00:15:29.173Z,36.10
2023-04-29T00:17:57.575Z,36.37
2023-04-29T00:20:26.267Z,39.33
2023-04-29T00:22:54.710Z,36.43
2023-04-29T00:25:23.190Z,37.03
2023-04-29T00:27:52.508Z,29.63
2023-04-29T00:30:24.712Z,36.93
2023-04-29T00:32:54.750Z,33.83
2023-04-29T00:35:23.493Z,32.10
2023-04-29T00:37:51.913Z,34.53
2023-04-29T00:40:20.403Z,31.80
2023-04-29T00:42:48.799Z,38.93
2023-04-29T00:45:17.192Z,41.93
2023-04-29T00:47:45.736Z,35.30
2023-04-29T00:50:15.652Z,34.30
2023-04-29T00:52:44.091Z,34.00
2023-04-29T00:55:12.987Z,35.37
2023-04-29T00:57:41.396Z,35.13
2023-04-29T01:00:10.930Z,29.67
2023-04-29T01:02:39.731Z,30.97
2023-04-29T01:05:08.410Z,33.80
2023-04-29T01:07:39.716Z,31.47
2023-04-29T01:10:08.810Z,29.37
2023-04-29T01:12:40.693Z,35.67
2023-04-29T01:15:11.221Z,25.13
2023-04-29T01:17:41.768Z,31.47
2023-04-29T01:20:11.385Z,33.40
2023-04-29T01:22:41.885Z,31.73
2023-04-29T01:25:11.766Z,32.03
2023-04-29T01:27:42.162Z,36.50
2023-04-29T01:30:12.514Z,30.37
2023-04-29T01:32:44.030Z,35.03
2023-04-29T01:35:13.909Z,24.73
2023-04-29T01:37:43.271Z,28.17
2023-04-29T01:40:14.214Z,31.83
2023-04-29T01:42:45.905Z,37.60
2023-04-29T01:45:16.260Z,33.03
2023-04-29T01:47:44.700Z,33.27
2023-04-29T01:50:13.217Z,37.00
2023-04-29T01:52:41.730Z,30.43
2023-04-29T01:55:11.229Z,29.07
2023-04-29T01:57:41.087Z,35.23
2023-04-29T02:00:11.726Z,29.43
2023-04-29T02:02:40.927Z,33.80
2023-04-29T02:05:10.032Z,29.23
2023-04-29T02:07:38.707Z,33.20
2023-04-29T02:10:07.703Z,31.20
2023-04-29T02:12:36.316Z,30.87
2023-04-29T02:15:06.842Z,26.73
2023-04-29T02:17:35.506Z,25.33
2023-04-29T02:20:04.019Z,27.20
2023-04-29T02:22:32.419Z,27.67
2023-04-29T02:25:00.989Z,31.03
2023-04-29T02:27:29.354Z,22.83
2023-04-29T02:29:57.777Z,26.57
2023-04-29T02:32:27.588Z,26.77
2023-04-29T02:34:56.030Z,32.13
2023-04-29T02:37:24.500Z,27.03
2023-04-29T02:39:53.417Z,25.33
2023-04-29T02:42:22.213Z,24.47
2023-04-29T02:44:50.646Z,24.73
2023-04-29T02:47:19.159Z,24.93
2023-04-29T02:49:49.107Z,25.30
2023-04-29T02:52:18.627Z,24.57
2023-04-29T02:54:47.061Z,20.90
2023-04-29T02:57:15.567Z,22.97
2023-04-29T02:59:44.284Z,22.63
2023-04-29T03:02:12.805Z,21.47
2023-04-29T03:04:41.363Z,21.47
2023-04-29T03:07:11.182Z,19.40
2023-04-29T03:09:39.570Z,24.77
2023-04-29T03:12:07.885Z,23.83
2023-04-29T03:14:36.459Z,19.87
2023-04-29T03:17:05.103Z,22.07
2023-04-29T03:19:33.633Z,24.60
2023-04-29T03:22:02.080Z,22.40
2023-04-29T03:24:31.981Z,22.90
2023-04-29T03:27:01.218Z,22.47
2023-04-29T03:29:29.705Z,19.90
2023-04-29T03:31:59.642Z,23.47
2023-04-29T03:34:28.267Z,21.73
2023-04-29T03:36:57.467Z,25.37
2023-04-29T03:39:26.039Z,25.73
2023-04-29T03:41:56.006Z,25.33
2023-04-29T03:44:24.505Z,27.33
2023-04-29T03:46:53.080Z,25.00
2023-04-29T03:49:21.431Z,21.33
2023-04-29T03:51:49.881Z,19.53
2023-04-29T03:54:18.524Z,21.73
2023-04-29T03:56:46.947Z,20.90
2023-04-29T03:59:16.706Z,23.83
2023-04-29T04:01:45.293Z,24.87
2023-04-29T04:04:14.186Z,22.73
2023-04-29T04:06:44.066Z,22.67
2023-04-29T04:09:12.435Z,24.83
2023-04-29T04:11:42.190Z,23.27
2023-04-29T04:14:10.689Z,20.90
2023-04-29T04:16:40.447Z,23.37
2023-04-29T04:19:09.077Z,20.27
2023-04-29T04:21:37.675Z,24.73
2023-04-29T04:24:06.234Z,22.63
2023-04-29T04:26:34.659Z,26.97
2023-04-29T04:29:03.180Z,22.60
2023-04-29T04:31:31.625Z,24.67
2023-04-29T04:34:01.592Z,22.90
2023-04-29T04:36:29.950Z,24.83
2023-04-29T04:38:58.338Z,23.67
2023-04-29T04:41:27.067Z,25.07
2023-04-29T04:43:55.557Z,25.27
2023-04-29T04:46:23.916Z,25.17
2023-04-29T04:48:52.352Z,24.90
2023-04-29T04:51:22.276Z,24.80
2023-04-29T04:53:50.827Z,29.03
2023-04-29T04:56:19.204Z,22.47
2023-04-29T04:58:47.804Z,29.77
2023-04-29T05:01:16.258Z,24.27
2023-04-29T05:03:45.034Z,28.03
2023-04-29T05:06:13.910Z,32.47
2023-04-29T05:08:43.843Z,27.37
2023-04-29T05:11:18.347Z,29.77
2023-04-29T05:13:46.758Z,28.20
2023-04-29T05:16:15.440Z,35.17
2023-04-29T05:18:45.632Z,28.73
2023-04-29T05:21:15.966Z,33.33
2023-04-29T05:23:46.927Z,31.87
2023-04-29T05:26:15.351Z,29.23
2023-04-29T05:28:43.858Z,31.13
2023-04-29T05:31:12.280Z,32.03
2023-04-29T05:33:40.715Z,31.67
2023-04-29T05:36:09.294Z,36.73
2023-04-29T05:38:38.401Z,37.60
2023-04-29T05:41:08.195Z,37.30
2023-04-29T05:43:44.154Z,35.20
2023-04-29T05:46:15.834Z,33.20
2023-04-29T05:48:44.905Z,31.90
2023-04-29T05:51:13.397Z,36.90
2023-04-29T05:53:42.236Z,33.90
2023-04-29T05:56:15.521Z,32.63
2023-04-29T05:58:44.381Z,43.70
2023-04-29T06:01:12.763Z,40.63
2023-04-29T06:03:42.085Z,39.10
2023-04-29T06:06:10.759Z,38.30
2023-04-29T06:08:39.198Z,38.37
2023-04-29T06:11:07.712Z,39.17
2023-04-29T06:13:37.514Z,41.20
2023-04-29T06:16:06.279Z,41.63
2023-04-29T06:18:34.745Z,36.60
2023-04-29T06:21:03.044Z,35.47
2023-04-29T06:23:32.155Z,39.30
2023-04-29T06:26:00.936Z,38.37
2023-04-29T06:28:30.020Z,29.03
2023-04-29T06:30:59.940Z,31.17
2023-04-29T06:33:28.340Z,27.70
2023-04-29T06:35:57.339Z,27.87
2023-04-29T06:38:25.774Z,27.97
2023-04-29T06:40:54.240Z,24.90
2023-04-29T06:43:22.837Z,23.97
2023-04-29T06:45:51.853Z,25.23
2023-04-29T06:48:21.894Z,27.20
2023-04-29T06:50:53.345Z,26.07
2023-04-29T06:53:21.854Z,25.47
2023-04-29T06:55:50.383Z,26.93
2023-04-29T06:58:18.859Z,23.30
2023-04-29T07:00:47.463Z,22.80
2023-04-29T07:03:16.070Z,18.10
2023-04-29T07:05:46.092Z,27.47
2023-04-29T07:08:14.593Z,22.47
2023-04-29T07:10:42.944Z,19.30
2023-04-29T07:13:11.653Z,22.70
2023-04-29T07:15:40.096Z,23.17
2023-04-29T07:18:08.438Z,20.37
2023-04-29T07:20:38.370Z,18.77
2023-04-29T07:23:08.085Z,19.43
2023-04-29T07:25:36.892Z,19.73
2023-04-29T07:28:05.634Z,14.23
2023-04-29T07:30:34.641Z,16.30
2023-04-29T07:33:04.486Z,18.53
2023-04-29T07:35:34.208Z,18.80
2023-04-29T07:38:02.762Z,15.80
2023-04-29T07:40:32.517Z,14.77
2023-04-29T07:43:04.912Z,14.63
2023-04-29T07:45:33.485Z,14.40
2023-04-29T07:48:02.065Z,15.67
2023-04-29T07:50:31.036Z,18.93
2023-04-29T07:53:00.510Z,15.97
2023-04-29T07:55:29.995Z,20.77
2023-04-29T07:58:00.531Z,15.50
2023-04-29T08:00:29.121Z,14.80
2023-04-29T08:02:58.077Z,15.77
2023-04-29T08:05:27.046Z,19.50
2023-04-29T08:07:55.789Z,20.23
2023-04-29T08:10:24.188Z,18.47
2023-04-29T08:12:52.565Z,19.70
2023-04-29T08:15:25.666Z,18.67
2023-04-29T08:17:54.420Z,19.37
2023-04-29T08:20:23.112Z,14.17
2023-04-29T08:22:51.701Z,16.53
2023-04-29T08:25:20.372Z,12.17
2023-04-29T08:27:49.019Z,15.83
2023-04-29T08:30:17.673Z,19.87
2023-04-29T08:32:47.650Z,13.37
2023-04-29T08:35:16.113Z,14.57
2023-04-29T08:37:44.560Z,13.73
2023-04-29T08:40:13.292Z,16.03
2023-04-29T08:42:41.834Z,13.60
2023-04-29T08:45:10.845Z,13.97
2023-04-29T08:47:39.281Z,8.93
2023-04-29T08:50:10.021Z,15.40
2023-04-29T08:52:38.386Z,16.07
2023-04-29T08:55:07.360Z,9.53
2023-04-29T08:57:39.615Z,14.43
2023-04-29T09:00:08.820Z,11.27
2023-04-29T09:02:37.519Z,11.20
2023-04-29T09:05:07.389Z,13.93
2023-04-29T09:07:37.232Z,13.43
2023-04-29T09:10:06.305Z,11.97
2023-04-29T09:12:36.301Z,15.47
2023-04-29T09:15:05.509Z,20.10
2023-04-29T09:17:40.878Z,13.57
2023-04-29T09:20:24.411Z,15.20
2023-04-29T09:22:55.304Z,17.63
2023-04-29T09:25:24.123Z,13.53
2023-04-29T09:27:53.077Z,11.13
2023-04-29T09:30:21.548Z,16.70
2023-04-29T09:33:05.561Z,18.53
2023-04-29T09:35:34.191Z,15.93
2023-04-29T09:38:14.169Z,14.13
2023-04-29T09:40:57.296Z,11.70
2023-04-29T09:43:26.970Z,12.97
2023-04-29T09:45:55.743Z,9.43
2023-04-29T09:48:24.190Z,10.00
2023-04-29T09:51:01.494Z,9.73
2023-04-29T09:53:31.972Z,10.93
2023-04-29T09:56:00.924Z,11.43
2023-04-29T09:58:30.147Z,15.20
2023-04-29T10:00:59.580Z,10.97
2023-04-29T10:03:28.200Z,12.47
2023-04-29T10:05:56.705Z,8.50
2023-04-29T10:08:25.186Z,12.17
2023-04-29T10:10:57.750Z,11.07
2023-04-29T10:13:26.972Z,11.57
2023-04-29T10:15:58.932Z,8.90
2023-04-29T10:18:28.679Z,12.90
2023-04-29T10:20:57.214Z,9.97
2023-04-29T10:23:25.902Z,10.67
2023-04-29T10:25:55.957Z,11.53
2023-04-29T10:28:24.389Z,9.27
2023-04-29T10:30:53.032Z,9.40
2023-04-29T10:33:21.706Z,10.10
2023-04-29T10:35:50.978Z,9.53
2023-04-29T10:38:22.722Z,9.50
2023-04-29T10:40:51.120Z,8.07
2023-04-29T10:43:20.943Z,8.37
2023-04-29T10:45:49.294Z,9.07
2023-04-29T10:48:19.396Z,11.17
2023-04-29T10:51:06.276Z,10.13
2023-04-29T10:53:34.682Z,12.43
2023-04-29T10:56:07.028Z,10.50
2023-04-29T10:58:44.423Z,11.40
2023-04-29T11:01:13.183Z,12.37
2023-04-29T11:03:55.037Z,10.30
2023-04-29T11:06:25.186Z,7.90
2023-04-29T11:09:03.416Z,14.33
2023-04-29T11:11:46.824Z,7.43
2023-04-29T11:14:16.960Z,11.53
2023-04-29T11:16:53.460Z,11.70
2023-04-29T11:19:22.073Z,14.63
2023-04-29T11:21:50.467Z,10.63
2023-04-29T11:24:18.835Z,10.70
2023-04-29T11:26:48.941Z,8.20
2023-04-29T11:29:18.868Z,9.50
2023-04-29T11:31:47.328Z,10.47
2023-04-29T11:34:16.000Z,12.30
2023-04-29T11:36:45.821Z,10.10
2023-04-29T11:39:15.981Z,9.93
2023-04-29T11:41:44.585Z,11.23
2023-04-29T11:44:13.722Z,9.13
2023-04-29T11:46:43.515Z,9.47
2023-04-29T11:49:11.959Z,10.47
2023-04-29T11:51:40.837Z,9.90
2023-04-29T11:54:09.207Z,9.73
2023-04-29T11:56:39.231Z,10.60
2023-04-29T11:59:08.294Z,9.40
2023-04-29T12:01:38.074Z,9.83
2023-04-29T12:04:07.948Z,9.57
2023-04-29T12:06:36.612Z,8.77
2023-04-29T12:09:05.210Z,9.50
2023-04-29T12:11:33.693Z,9.67
2023-04-29T12:14:03.710Z,8.43
2023-04-29T12:16:32.411Z,11.67
2023-04-29T12:19:01.408Z,11.10
2023-04-29T12:21:31.873Z,12.17
2023-04-29T12:24:01.753Z,10.00
2023-04-29T12:26:30.474Z,10.07
2023-04-29T12:28:59.304Z,13.50
2023-04-29T12:31:34.592Z,12.70
2023-04-29T12:34:04.864Z,10.23
2023-04-29T12:36:37.358Z,8.63
2023-04-29T12:39:09.982Z,9.40
2023-04-29T12:41:38.849Z,9.87
2023-04-29T12:44:07.606Z,11.97
2023-04-29T12:46:37.018Z,9.93
2023-04-29T12:49:05.746Z,10.03
2023-04-29T12:51:34.435Z,9.37
2023-04-29T12:54:06.297Z,9.13
2023-04-29T12:56:34.869Z,12.73
2023-04-29T12:59:10.124Z,12.07
2023-04-29T13:01:38.876Z,7.83
2023-04-29T13:04:09.223Z,8.63
2023-04-29T13:06:42.979Z,11.13
2023-04-29T13:09:18.291Z,9.60
2023-04-29T13:11:47.406Z,10.60
2023-04-29T13:14:16.504Z,9.10
2023-04-29T13:16:45.268Z,9.63
2023-04-29T13:19:32.227Z,11.93
2023-04-29T13:22:02.320Z,10.47
2023-04-29T13:24:33.186Z,9.63
2023-04-29T13:27:03.132Z,9.40
2023-04-29T13:29:31.626Z,12.10
2023-04-29T13:31:59.977Z,10.93
2023-04-29T13:34:28.468Z,8.90
2023-04-29T13:36:56.828Z,8.07
2023-04-29T13:39:25.719Z,9.03
2023-04-29T13:41:59.027Z,7.93
2023-04-29T13:44:35.805Z,13.27
2023-04-29T13:47:14.335Z,10.23
2023-04-29T13:50:16.536Z,8.40
2023-04-29T13:55:49.972Z,7.37
2023-04-29T14:00:56.984Z,6.93
2023-04-29T14:03:13.652Z,6.83
2023-04-29T14:05:42.456Z,8.60
2023-04-29T14:08:11.072Z,12.30
2023-04-29T14:10:39.458Z,7.83
2023-04-29T14:13:09.287Z,9.60
2023-04-29T14:15:37.716Z,7.33
2023-04-29T14:18:08.153Z,7.20
2023-04-29T14:20:36.667Z,8.07
2023-04-29T14:23:05.149Z,8.67
2023-04-29T14:25:34.052Z,9.20
2023-04-29T14:28:02.628Z,7.30
2023-04-29T14:30:32.403Z,7.03
2023-04-29T14:33:00.930Z,6.97
2023-04-29T14:35:30.160Z,6.93
2023-04-29T14:37:58.625Z,8.90
2023-04-29T14:40:27.061Z,7.70
2023-04-29T14:42:55.451Z,8.23
2023-04-29T14:45:23.871Z,7.30
2023-04-29T14:47:55.173Z,12.30
2023-04-29T14:50:25.155Z,5.73
2023-04-29T14:52:53.986Z,7.43
2023-04-29T14:55:22.336Z,7.30
2023-04-29T14:57:50.832Z,8.37
2023-04-29T15:00:19.436Z,10.03
2023-04-29T15:02:47.859Z,9.13
2023-04-29T15:05:18.043Z,7.70
2023-04-29T15:07:46.520Z,7.80
2023-04-29T15:10:14.956Z,8.57
2023-04-29T15:12:43.400Z,8.97
2023-04-29T15:15:12.358Z,10.00
2023-04-29T15:17:40.745Z,10.67
2023-04-29T15:20:09.774Z,9.90
2023-04-29T15:22:39.666Z,6.57
2023-04-29T15:25:08.435Z,10.73
2023-04-29T15:27:36.813Z,9.13
2023-04-29T15:30:05.509Z,10.87
2023-04-29T15:32:33.979Z,10.80
2023-04-29T15:35:02.529Z,10.33
2023-04-29T15:37:30.950Z,7.10
2023-04-29T15:40:01.340Z,9.37
2023-04-29T15:42:29.871Z,9.27
2023-04-29T15:44:58.509Z,8.67
2023-04-29T15:47:27.070Z,8.83
2023-04-29T15:49:56.450Z,10.13
2023-04-29T15:52:25.203Z,10.03
2023-04-29T15:54:53.657Z,7.50
2023-04-29T15:57:23.436Z,7.13
2023-04-29T15:59:52.117Z,7.27
2023-04-29T16:02:21.212Z,11.37
2023-04-29T16:04:49.904Z,9.87
2023-04-29T16:07:18.882Z,8.93
2023-04-29T16:09:47.414Z,10.07
2023-04-29T16:12:15.854Z,7.20
2023-04-29T16:14:45.724Z,6.50
2023-04-29T16:17:14.100Z,9.47
2023-04-29T16:19:42.608Z,7.47
2023-04-29T16:22:11.104Z,7.23
2023-04-29T16:24:39.617Z,10.57
2023-04-29T16:27:08.050Z,6.53
2023-04-29T16:29:36.680Z,8.63
2023-04-29T16:32:06.865Z,6.23
2023-04-29T16:34:35.414Z,8.60
2023-04-29T16:37:03.745Z,6.47
2023-04-29T16:39:32.315Z,5.63
2023-04-29T16:42:00.930Z,7.90
2023-04-29T16:44:29.540Z,5.60
2023-04-29T16:46:57.939Z,8.00
2023-04-29T16:49:27.795Z,6.97
2023-04-29T16:51:56.405Z,7.93
2023-04-29T16:54:24.816Z,5.70
2023-04-29T16:56:53.226Z,6.63
2023-04-29T16:59:22.015Z,7.53
2023-04-29T17:01:50.521Z,8.33
2023-04-29T17:04:19.113Z,6.37
2023-04-29T17:06:49.047Z,6.80
2023-04-29T17:09:17.716Z,4.80
2023-04-29T17:11:46.053Z,5.13
2023-04-29T17:14:14.390Z,8.87
2023-04-29T17:16:42.827Z,6.93
2023-04-29T17:19:11.252Z,6.27
2023-04-29T17:21:39.628Z,4.73
2023-04-29T17:24:09.761Z,8.17
2023-04-29T17:26:38.261Z,6.60
2023-04-29T17:29:06.785Z,3.80
2023-04-29T17:31:45.132Z,5.67
2023-04-29T17:34:19.203Z,5.23
2023-04-29T17:36:47.894Z,5.70
2023-04-29T17:39:17.737Z,6.03
2023-04-29T17:41:46.553Z,5.77
2023-04-29T17:44:15.004Z,6.03
2023-04-29T17:46:43.938Z,5.03
2023-04-29T17:49:12.371Z,8.37
2023-04-29T17:51:40.803Z,5.67
2023-04-29T17:54:09.284Z,5.83
2023-04-29T17:56:39.359Z,7.83
2023-04-29T17:59:08.520Z,7.43
2023-04-29T18:01:37.191Z,6.67
2023-04-29T18:04:06.101Z,5.63
2023-04-29T18:06:35.073Z,3.43
2023-04-29T18:09:03.731Z,6.23
2023-04-29T18:11:32.128Z,4.50
2023-04-29T18:14:01.853Z,6.23
2023-04-29T18:16:30.212Z,5.20
2023-04-29T18:18:58.612Z,4.97
2023-04-29T18:21:27.368Z,4.90
2023-04-29T18:23:55.909Z,10.60
2023-04-29T18:26:24.239Z,6.67
2023-04-29T18:28:52.648Z,7.03
2023-04-29T18:31:23.275Z,6.30
2023-04-29T18:33:51.776Z,5.93
2023-04-29T18:36:21.426Z,3.63
2023-04-29T18:38:50.014Z,5.23
2023-04-29T18:41:18.415Z,6.77
2023-04-29T18:43:46.769Z,6.80
2023-04-29T18:46:15.442Z,5.83
2023-04-29T18:48:45.223Z,4.43
2023-04-29T18:51:13.581Z,6.53
2023-04-29T18:53:42.029Z,4.13
2023-04-29T18:56:10.449Z,6.07
2023-04-29T18:58:38.876Z,6.00
2023-04-29T19:01:07.364Z,5.93
2023-04-29T19:03:35.832Z,4.03
2023-04-29T19:06:05.900Z,6.67
2023-04-29T19:08:34.284Z,3.93
2023-04-29T19:11:03.958Z,7.40
2023-04-29T19:13:32.387Z,4.73
2023-04-29T19:16:01.084Z,6.63
2023-04-29T19:18:29.679Z,5.87
2023-04-29T19:20:58.169Z,9.10
2023-04-29T19:23:27.980Z,7.23
2023-04-29T19:25:56.361Z,3.03
2023-04-29T19:28:24.936Z,7.43
2023-04-29T19:30:53.373Z,5.27
2023-04-29T19:33:21.771Z,5.90
2023-04-29T19:35:50.261Z,4.73
2023-04-29T19:38:18.658Z,7.03
2023-04-29T19:40:48.967Z,5.53
2023-04-29T19:43:17.983Z,5.93
2023-04-29T19:45:46.429Z,6.40
2023-04-29T19:48:15.335Z,7.77
2023-04-29T19:50:43.667Z,7.73
2023-04-29T19:53:12.437Z,5.93
2023-04-29T19:55:41.228Z,8.97
2023-04-29T19:58:10.994Z,7.43
2023-04-29T20:00:39.833Z,6.43
2023-04-29T20:03:08.224Z,11.10
2023-04-29T20:05:36.723Z,8.97
2023-04-29T20:08:05.076Z,8.80
2023-04-29T20:10:33.443Z,6.17
2023-04-29T20:13:01.808Z,11.43
2023-04-29T20:15:31.659Z,15.70
2023-04-29T20:18:00.205Z,9.27
2023-04-29T20:20:28.647Z,10.63
2023-04-29T20:23:00.316Z,9.77
2023-04-29T20:25:28.777Z,9.87
2023-04-29T20:27:57.528Z,9.10
2023-04-29T20:30:26.866Z,10.43
2023-04-29T20:32:56.609Z,9.13
2023-04-29T20:35:25.564Z,7.93
2023-04-29T20:37:54.052Z,11.17
2023-04-29T20:40:22.577Z,11.50
2023-04-29T20:42:50.957Z,10.97
2023-04-29T20:45:19.569Z,9.30
2023-04-29T20:47:48.000Z,8.57
2023-04-29T20:50:17.745Z,7.67
2023-04-29T20:52:48.682Z,9.83
2023-04-29T20:55:17.707Z,10.70
2023-04-29T20:57:46.071Z,9.43
2023-04-29T21:00:15.218Z,10.73
2023-04-29T21:02:43.648Z,9.37
2023-04-29T21:05:12.166Z,9.17
2023-04-29T21:07:41.869Z,9.30
2023-04-29T21:10:10.601Z,10.10
2023-04-29T21:12:38.997Z,11.10
2023-04-29T21:15:07.792Z,10.30
2023-04-29T21:17:36.197Z,11.70
2023-04-29T21:20:04.627Z,15.43
2023-04-29T21:22:33.039Z,8.93
2023-04-29T21:25:05.501Z,9.30
2023-04-29T21:27:35.875Z,10.30
2023-04-29T21:30:04.840Z,8.73
2023-04-29T21:32:33.909Z,13.03
2023-04-29T21:35:02.381Z,8.13
2023-04-29T21:37:31.045Z,10.70
2023-04-29T21:40:00.504Z,15.97
2023-04-29T21:42:30.237Z,13.47
2023-04-29T21:44:59.810Z,12.07
2023-04-29T21:47:28.868Z,14.43
2023-04-29T21:49:57.556Z,14.47
2023-04-29T21:52:26.019Z,14.90
2023-04-29T21:54:54.527Z,13.97
2023-04-29T21:57:35.693Z,13.60
2023-04-29T22:00:28.708Z,16.70
2023-04-29T22:02:57.155Z,17.50
2023-04-29T22:05:25.852Z,13.23
2023-04-29T22:07:54.145Z,12.60
2023-04-29T22:10:22.573Z,17.07
2023-04-29T22:12:51.140Z,13.40
2023-04-29T22:17:55.704Z,15.83
2023-04-29T22:20:24.265Z,15.43
2023-04-29T22:22:52.888Z,13.93
2023-04-29T22:25:21.975Z,14.60
2023-04-29T22:27:50.596Z,14.93
2023-04-29T22:30:19.754Z,15.47
2023-04-29T22:32:49.926Z,15.70
2023-04-29T22:35:18.500Z,21.83
2023-04-29T22:37:47.008Z,19.87
2023-04-29T22:40:15.828Z,16.03
2023-04-29T22:42:44.270Z,17.13
2023-04-29T22:45:13.351Z,18.60
2023-04-29T22:47:41.975Z,17.37
2023-04-29T22:50:12.334Z,17.57
2023-04-29T22:52:40.916Z,16.30
2023-04-29T22:55:09.804Z,19.97
2023-04-29T22:57:38.305Z,13.83
2023-04-29T23:00:07.502Z,15.47
2023-04-29T23:02:35.902Z,18.43
2023-04-29T23:05:04.380Z,17.43
2023-04-29T23:07:34.344Z,17.10
2023-04-29T23:10:02.823Z,19.50
2023-04-29T23:12:31.557Z,17.60
2023-04-29T23:15:00.007Z,18.23
2023-04-29T23:17:28.473Z,17.83
2023-04-29T23:19:57.068Z,21.17
2023-04-29T23:22:25.967Z,20.23
2023-04-29T23:24:55.858Z,18.00
2023-04-29T23:27:24.186Z,21.97
2023-04-29T23:29:52.797Z,18.43
2023-04-29T23:32:21.672Z,17.87
2023-04-29T23:34:50.117Z,18.00
2023-04-29T23:37:18.465Z,19.67
2023-04-29T23:39:47.112Z,20.90
2023-04-29T23:42:16.885Z,21.60
2023-04-29T23:44:45.395Z,20.10
2023-04-29T23:47:13.797Z,18.97
2023-04-29T23:49:42.205Z,19.67
2023-04-29T23:52:11.162Z,19.80
2023-04-29T23:54:39.530Z,20.20
2023-04-29T23:57:08.063Z,16.97
2023-04-29T23:59:37.805Z,20.10
